Time;durP1;ratioP1;P1;durP2;ratioP2;P2;SDS_P1;SDS_P2;PMS_P1;PMS_P2;Temp;Humidity;BMP_temperature;BMP_pressure;BME280_temperature;BME280_humidity;BME280_pressure;Samples;Min_cycle;Max_cycle;Signal;HPM_P1;HPM_P2
2023/12/31 00:00:12;;;;;;;0.88;0.00;;;9.00;99.90;;;;;;5033574;28;20041;-75
2023/12/31 00:02:38;;;;;;;1.42;0.20;;;9.00;99.90;;;;;;5033716;28;20105;-75
2023/12/31 00:05:05;;;;;;;0.52;0.08;;;8.90;99.90;;;;;;5033687;28;20112;-75
2023/12/31 00:07:31;;;;;;;2.70;0.63;;;8.90;99.90;;;;;;5034230;28;20441;-75
2023/12/31 00:09:56;;;;;;;2.58;0.10;;;8.90;99.90;;;;;;5033747;28;20046;-75
2023/12/31 00:12:22;;;;;;;0.60;0.00;;;8.90;99.90;;;;;;5032325;28;20511;-75
2023/12/31 00:14:48;;;;;;;0.80;0.00;;;8.80;99.90;;;;;;5032350;28;20132;-76
2023/12/31 00:17:14;;;;;;;0.55;0.00;;;8.90;99.90;;;;;;5032335;28;20536;-75
2023/12/31 00:19:39;;;;;;;0.45;0.10;;;8.90;99.90;;;;;;5036139;28;20112;-75
2023/12/31 00:22:06;;;;;;;0.20;0.00;;;8.80;99.90;;;;;;5036274;28;20060;-75
2023/12/31 00:24:31;;;;;;;0.60;0.00;;;8.80;99.90;;;;;;5038227;28;20017;-76
2023/12/31 00:26:57;;;;;;;0.73;0.10;;;8.80;99.90;;;;;;5037642;28;20022;-76
2023/12/31 00:29:23;;;;;;;0.13;0.00;;;8.80;99.90;;;;;;5036852;28;20017;-75
2023/12/31 00:31:48;;;;;;;1.65;0.20;;;8.90;99.90;;;;;;5038048;28;20025;-75
2023/12/31 00:34:14;;;;;;;3.30;0.47;;;8.80;99.90;;;;;;5037560;28;20025;-76
2023/12/31 00:36:39;;;;;;;0.10;0.00;;;8.80;99.90;;;;;;5037406;28;20022;-76
2023/12/31 00:39:05;;;;;;;0.57;0.00;;;8.80;99.90;;;;;;5037273;28;20507;-76
2023/12/31 00:41:31;;;;;;;0.20;0.00;;;8.80;99.90;;;;;;5036040;28;20025;-76
2023/12/31 00:43:57;;;;;;;0.85;0.00;;;8.80;99.90;;;;;;5035899;28;20032;-76
2023/12/31 00:46:23;;;;;;;0.70;0.30;;;8.80;99.90;;;;;;5035844;28;20100;-75
2023/12/31 00:48:49;;;;;;;0.38;0.10;;;8.80;99.90;;;;;;5037431;28;20018;-75
2023/12/31 00:51:15;;;;;;;0.08;0.00;;;8.80;99.90;;;;;;5035618;28;20037;-76
2023/12/31 00:53:40;;;;;;;0.60;0.00;;;8.80;99.90;;;;;;5035767;28;20020;-76
2023/12/31 00:56:08;;;;;;;1.30;0.00;;;8.80;99.90;;;;;;5036867;28;20591;-75
2023/12/31 00:58:34;;;;;;;0.00;0.00;;;8.80;99.90;;;;;;5036890;28;20029;-75
2023/12/31 01:00:59;;;;;;;1.02;0.00;;;8.80;99.90;;;;;;5035481;28;20032;-76
2023/12/31 01:03:25;;;;;;;2.35;0.00;;;8.80;99.90;;;;;;5035754;28;20488;-75
2023/12/31 01:05:51;;;;;;;2.08;0.00;;;8.70;99.90;;;;;;5037251;28;20024;-76
2023/12/31 01:08:17;;;;;;;0.30;0.00;;;8.70;99.90;;;;;;5036769;28;20032;-76
2023/12/31 01:10:42;;;;;;;0.98;0.43;;;8.70;99.90;;;;;;5036831;28;20036;-76
2023/12/31 01:13:08;;;;;;;0.00;0.00;;;8.70;99.90;;;;;;5036882;28;20018;-76
2023/12/31 01:15:33;;;;;;;3.25;0.00;;;8.70;99.90;;;;;;5035479;28;20508;-75
2023/12/31 01:17:59;;;;;;;0.22;0.00;;;8.70;99.90;;;;;;5035681;28;20029;-76
2023/12/31 01:20:25;;;;;;;1.42;0.00;;;8.70;99.90;;;;;;5035527;28;20055;-75
2023/12/31 01:22:51;;;;;;;0.57;0.00;;;8.60;99.90;;;;;;5036741;28;20480;-76
2023/12/31 01:25:16;;;;;;;3.22;0.00;;;8.60;99.90;;;;;;5036448;28;20043;-75
2023/12/31 01:27:42;;;;;;;0.65;0.00;;;8.60;99.90;;;;;;5035053;28;20025;-75
2023/12/31 01:30:10;;;;;;;0.50;0.00;;;8.60;99.90;;;;;;5034173;28;20029;-75
2023/12/31 01:32:36;;;;;;;3.20;0.00;;;8.60;99.90;;;;;;5035390;28;20426;-75
2023/12/31 01:35:03;;;;;;;0.52;0.00;;;8.70;99.90;;;;;;5035269;28;20032;-75
2023/12/31 01:37:28;;;;;;;0.22;0.00;;;8.70;99.90;;;;;;5036642;28;20030;-75
2023/12/31 01:39:54;;;;;;;2.05;0.32;;;8.60;99.90;;;;;;5036232;28;20031;-76
2023/12/31 01:42:20;;;;;;;1.23;0.00;;;8.70;99.90;;;;;;5043253;28;20025;-80
2023/12/31 01:44:45;;;;;;;0.47;0.00;;;8.70;99.90;;;;;;5045551;28;20104;-81
2023/12/31 01:47:12;;;;;;;0.52;0.00;;;9.60;99.90;;;;;;5047937;28;20028;-81
2023/12/31 01:49:39;;;;;;;1.67;0.00;;;8.60;99.90;;;;;;5047143;28;20101;-81
2023/12/31 01:52:06;;;;;;;0.00;0.00;;;8.60;99.90;;;;;;5047115;28;20033;-81
2023/12/31 01:54:32;;;;;;;1.02;0.00;;;8.60;99.90;;;;;;5045939;28;20097;-81
2023/12/31 01:56:58;;;;;;;0.52;0.00;;;8.60;99.90;;;;;;5047867;28;20026;-81
2023/12/31 01:59:24;;;;;;;1.20;0.00;;;8.70;99.90;;;;;;5046727;28;20018;-81
2023/12/31 02:01:51;;;;;;;0.35;0.10;;;8.70;99.90;;;;;;5045646;28;20025;-81
2023/12/31 02:04:22;;;;;;;2.20;0.00;;;8.70;99.90;;;;;;5046030;28;20125;-81
2023/12/31 02:06:48;;;;;;;1.27;0.00;;;7.40;99.90;;;;;;5046641;28;20092;-80
2023/12/31 02:09:14;;;;;;;1.88;0.10;;;8.80;99.90;;;;;;5046652;28;20017;-81
2023/12/31 02:11:41;;;;;;;0.40;0.00;;;8.90;99.90;;;;;;5048122;28;20022;-81
2023/12/31 02:14:06;;;;;;;0.52;0.00;;;8.80;99.90;;;;;;5048131;28;20026;-81
2023/12/31 02:16:32;;;;;;;0.35;0.00;;;8.90;99.90;;;;;;5047451;28;20036;-81
2023/12/31 02:18:57;;;;;;;0.10;0.05;;;8.90;99.90;;;;;;5047984;28;20022;-81
2023/12/31 02:21:25;;;;;;;3.38;0.10;;;9.00;99.90;;;;;;5048774;28;20034;-81
2023/12/31 02:23:51;;;;;;;1.15;0.00;;;;;;;;;;5049711;28;20021;-81
2023/12/31 02:26:18;;;;;;;2.30;0.00;;;9.00;99.90;;;;;;5047793;28;20098;-81
2023/12/31 02:28:43;;;;;;;3.22;0.00;;;9.00;99.90;;;;;;5043195;28;20099;-81
2023/12/31 02:31:12;;;;;;;1.25;0.00;;;9.10;99.90;;;;;;5043721;28;20025;-81
2023/12/31 02:33:37;;;;;;;0.57;0.00;;;9.00;99.90;;;;;;5044424;28;20036;-81
2023/12/31 02:36:03;;;;;;;1.23;0.00;;;9.10;99.90;;;;;;5043575;28;20006;-81
2023/12/31 02:38:29;;;;;;;0.77;0.00;;;9.00;99.90;;;;;;5044024;28;20037;-81
2023/12/31 02:40:54;;;;;;;1.25;0.10;;;9.10;99.90;;;;;;5045291;28;20029;-81
2023/12/31 02:43:20;;;;;;;0.20;0.00;;;;;;;;;;5046657;28;20365;-81
2023/12/31 02:45:46;;;;;;;0.80;0.00;;;9.10;99.90;;;;;;5044713;28;20056;-81
2023/12/31 02:48:11;;;;;;;2.38;0.20;;;9.10;99.90;;;;;;5046446;28;20021;-81
2023/12/31 02:50:37;;;;;;;1.25;0.00;;;9.10;99.90;;;;;;5045281;28;20484;-81
2023/12/31 02:53:03;;;;;;;0.00;0.00;;;9.10;99.90;;;;;;5044687;28;20381;-81
2023/12/31 02:55:28;;;;;;;0.70;0.10;;;9.10;99.90;;;;;;5044654;28;20022;-81
2023/12/31 02:57:54;;;;;;;1.05;0.00;;;9.00;99.90;;;;;;5043843;28;20385;-81
2023/12/31 03:00:20;;;;;;;0.82;0.20;;;9.00;99.90;;;;;;5044325;28;20014;-81
2023/12/31 03:02:46;;;;;;;0.35;0.00;;;9.00;99.90;;;;;;5043893;28;20020;-81
2023/12/31 03:05:12;;;;;;;0.52;0.00;;;9.00;99.90;;;;;;5043668;28;20043;-82
2023/12/31 03:07:38;;;;;;;1.23;0.00;;;9.00;99.90;;;;;;5042227;28;20022;-81
2023/12/31 03:10:04;;;;;;;1.08;0.00;;;9.00;99.90;;;;;;5044819;28;20008;-81
2023/12/31 03:12:30;;;;;;;2.40;0.00;;;9.00;99.90;;;;;;5044757;28;20435;-81
2023/12/31 03:14:56;;;;;;;0.00;0.00;;;8.90;99.90;;;;;;5042918;28;20025;-82
2023/12/31 03:17:22;;;;;;;1.88;0.47;;;8.90;99.90;;;;;;5048469;28;20021;-81
2023/12/31 03:19:48;;;;;;;1.13;0.00;;;8.90;99.90;;;;;;5048062;28;20021;-81
2023/12/31 03:22:14;;;;;;;1.65;0.00;;;8.90;99.90;;;;;;5046404;28;20040;-80
2023/12/31 03:24:43;;;;;;;0.52;0.00;;;8.90;99.90;;;;;;5045474;28;20022;-80
2023/12/31 03:27:11;;;;;;;0.85;0.00;;;8.90;99.90;;;;;;5047363;28;20021;-79
2023/12/31 03:29:37;;;;;;;0.63;0.00;;;8.90;99.90;;;;;;5044831;28;20029;-81
2023/12/31 03:32:04;;;;;;;1.10;0.00;;;8.80;99.90;;;;;;5042533;28;20049;-79
2023/12/31 03:34:31;;;;;;;0.90;0.45;;;8.80;99.90;;;;;;5039362;28;20032;-81
2023/12/31 03:36:57;;;;;;;1.00;0.00;;;8.90;99.90;;;;;;5045253;28;20392;-80
2023/12/31 03:39:23;;;;;;;0.38;0.00;;;8.90;99.90;;;;;;5047316;28;20104;-81
2023/12/31 03:41:49;;;;;;;1.65;0.13;;;8.90;99.90;;;;;;5046220;28;20032;-82
2023/12/31 03:44:15;;;;;;;2.35;0.00;;;8.80;99.90;;;;;;5046271;28;20096;-81
2023/12/31 03:46:42;;;;;;;0.10;0.00;;;8.80;99.90;;;;;;5046136;28;20074;-81
2023/12/31 03:49:07;;;;;;;1.38;0.00;;;8.90;99.90;;;;;;5046605;28;20396;-81
2023/12/31 03:51:33;;;;;;;0.35;0.00;;;10.20;99.90;;;;;;5045476;28;20033;-82
2023/12/31 03:53:59;;;;;;;0.63;0.00;;;8.80;99.90;;;;;;5045920;28;20083;-81
2023/12/31 03:56:24;;;;;;;1.10;0.00;;;8.80;99.90;;;;;;5046048;28;20029;-81
2023/12/31 03:58:50;;;;;;;0.68;0.00;;;8.80;99.90;;;;;;5045400;28;20056;-82
2023/12/31 04:01:16;;;;;;;0.85;0.00;;;9.30;99.90;;;;;;5043265;28;20408;-82
2023/12/31 04:03:42;;;;;;;0.88;0.17;;;;;;;;;;5043531;28;20370;-81
2023/12/31 04:06:08;;;;;;;2.60;0.00;;;8.90;99.90;;;;;;5040655;28;20036;-82
2023/12/31 04:08:33;;;;;;;0.10;0.00;;;8.90;99.90;;;;;;5041442;28;20022;-81
2023/12/31 04:10:59;;;;;;;0.20;0.00;;;8.90;99.90;;;;;;5040589;28;20459;-82
2023/12/31 04:13:25;;;;;;;1.85;0.00;;;8.90;99.90;;;;;;5040788;28;20025;-80
2023/12/31 04:15:50;;;;;;;0.90;0.00;;;8.90;99.90;;;;;;5042819;28;20032;-82
2023/12/31 04:18:17;;;;;;;1.95;0.30;;;8.90;99.90;;;;;;5043199;28;20021;-82
2023/12/31 04:20:43;;;;;;;3.13;0.00;;;8.90;99.90;;;;;;5044319;28;20026;-82
2023/12/31 04:23:11;;;;;;;0.20;0.00;;;8.80;99.90;;;;;;5044679;28;20022;-82
2023/12/31 04:25:37;;;;;;;1.17;0.35;;;8.80;99.90;;;;;;5043389;28;20017;-82
2023/12/31 04:28:03;;;;;;;0.95;0.00;;;8.80;99.90;;;;;;5042993;28;20013;-82
2023/12/31 04:30:29;;;;;;;0.77;0.00;;;;;;;;;;5044930;28;20021;-82
2023/12/31 04:32:54;;;;;;;0.10;0.00;;;8.80;99.90;;;;;;5045516;28;20056;-83
2023/12/31 04:35:20;;;;;;;2.10;0.52;;;8.80;99.90;;;;;;5045230;28;20476;-82
2023/12/31 04:37:45;;;;;;;0.30;0.10;;;8.80;99.90;;;;;;5038660;28;20108;-82
2023/12/31 04:40:11;;;;;;;0.35;0.00;;;8.80;99.90;;;;;;5041668;28;20017;-82
2023/12/31 04:42:37;;;;;;;0.13;0.00;;;8.80;99.90;;;;;;5045905;28;20113;-82
2023/12/31 04:45:09;;;;;;;0.43;0.00;;;8.80;99.90;;;;;;5047097;28;20033;-83
2023/12/31 04:47:38;;;;;;;1.70;0.00;;;8.80;99.90;;;;;;5045934;28;20057;-81
2023/12/31 04:50:05;;;;;;;2.50;0.10;;;8.80;99.90;;;;;;5045062;28;20044;-82
2023/12/31 04:52:31;;;;;;;0.20;0.00;;;8.80;99.90;;;;;;5045164;28;20024;-82
2023/12/31 04:54:56;;;;;;;0.22;0.03;;;8.90;99.90;;;;;;5044840;28;20025;-82
2023/12/31 04:57:22;;;;;;;0.65;0.00;;;8.90;99.90;;;;;;5044363;28;20423;-82
2023/12/31 04:59:48;;;;;;;0.52;0.00;;;9.00;99.90;;;;;;5043422;28;20527;-82
2023/12/31 05:02:14;;;;;;;0.93;0.00;;;9.00;99.90;;;;;;5044966;28;20033;-82
2023/12/31 05:04:40;;;;;;;1.25;0.05;;;9.00;99.90;;;;;;5044169;28;20534;-83
2023/12/31 05:07:08;;;;;;;0.10;0.00;;;9.00;99.90;;;;;;5048648;28;20089;-82
2023/12/31 05:09:33;;;;;;;0.40;0.00;;;9.00;99.90;;;;;;5048678;28;20025;-82
2023/12/31 05:11:59;;;;;;;0.93;0.00;;;9.00;99.90;;;;;;5049629;28;20025;-82
2023/12/31 05:14:24;;;;;;;1.08;0.10;;;9.00;99.90;;;;;;5050983;28;20033;-83
2023/12/31 05:16:50;;;;;;;2.00;0.10;;;9.00;99.90;;;;;;5049784;28;20562;-82
2023/12/31 05:19:16;;;;;;;0.10;0.00;;;9.00;99.90;;;;;;5048729;28;20025;-82
2023/12/31 05:21:41;;;;;;;1.38;0.00;;;9.00;99.90;;;;;;5050017;28;20029;-82
2023/12/31 05:24:07;;;;;;;0.55;0.00;;;9.00;99.90;;;;;;5048746;28;20025;-82
2023/12/31 05:26:33;;;;;;;0.73;0.00;;;9.10;99.90;;;;;;5049135;28;20104;-82
2023/12/31 05:28:58;;;;;;;1.42;0.45;;;9.30;99.90;;;;;;5049924;28;20431;-82
2023/12/31 05:31:24;;;;;;;1.40;0.70;;;9.00;99.90;;;;;;5048399;28;20029;-82
2023/12/31 05:33:49;;;;;;;0.47;0.03;;;10.10;99.90;;;;;;5048929;28;20037;-82
2023/12/31 05:36:15;;;;;;;0.90;0.00;;;9.00;99.90;;;;;;5049020;28;20494;-82
2023/12/31 05:38:41;;;;;;;1.42;0.00;;;9.00;99.90;;;;;;5048210;28;20427;-82
2023/12/31 05:41:06;;;;;;;2.47;0.20;;;9.00;99.90;;;;;;5049617;28;20033;-82
2023/12/31 05:43:32;;;;;;;1.10;0.00;;;9.00;99.90;;;;;;5046459;28;20022;-82
2023/12/31 05:45:57;;;;;;;0.15;0.00;;;9.00;99.90;;;;;;5046941;28;20021;-82
2023/12/31 05:48:23;;;;;;;0.75;0.10;;;9.10;99.90;;;;;;5048441;28;20026;-82
2023/12/31 05:50:49;;;;;;;0.10;0.00;;;9.10;99.90;;;;;;5044910;28;20034;-82
2023/12/31 05:53:15;;;;;;;2.08;0.30;;;;;;;;;;5042238;28;20030;-82
2023/12/31 05:55:41;;;;;;;0.40;0.00;;;;;;;;;;5043203;28;20026;-82
2023/12/31 05:58:07;;;;;;;0.28;0.10;;;;;;;;;;5041663;28;20039;-82
2023/12/31 06:00:33;;;;;;;0.10;0.00;;;9.10;99.90;;;;;;5045657;28;20531;-82
2023/12/31 06:02:58;;;;;;;1.38;0.00;;;9.10;99.90;;;;;;5045799;28;20017;-82
2023/12/31 06:05:24;;;;;;;0.63;0.10;;;9.10;99.90;;;;;;5046394;28;20025;-83
2023/12/31 06:07:50;;;;;;;0.65;0.10;;;9.10;99.90;;;;;;5046703;28;20018;-82
2023/12/31 06:10:16;;;;;;;1.42;0.00;;;;;;;;;;5048494;28;20030;-82
2023/12/31 06:12:41;;;;;;;1.58;0.03;;;9.00;99.90;;;;;;5046525;28;20025;-83
2023/12/31 06:15:09;;;;;;;1.75;0.10;;;9.00;99.90;;;;;;5049071;28;20025;-83
2023/12/31 06:17:35;;;;;;;3.35;0.00;;;8.90;99.90;;;;;;5048365;28;20039;-83
2023/12/31 06:20:02;;;;;;;2.92;0.45;;;9.00;99.90;;;;;;5047797;28;20108;-83
2023/12/31 06:22:27;;;;;;;1.38;0.10;;;8.90;99.90;;;;;;5041399;28;20041;-81
2023/12/31 06:24:53;;;;;;;1.05;0.00;;;8.90;99.90;;;;;;5042354;28;20029;-83
2023/12/31 06:27:18;;;;;;;1.13;0.00;;;8.90;99.90;;;;;;5038002;28;20393;-78
2023/12/31 06:29:44;;;;;;;0.13;0.00;;;9.00;99.90;;;;;;5045975;28;20021;-82
2023/12/31 06:32:10;;;;;;;0.45;0.20;;;;;;;;;;5047317;28;20583;-82
2023/12/31 06:34:36;;;;;;;1.13;0.10;;;9.00;99.90;;;;;;5047279;28;20400;-82
2023/12/31 06:37:01;;;;;;;3.65;0.50;;;9.00;99.90;;;;;;5043228;28;20022;-82
2023/12/31 06:39:27;;;;;;;0.82;0.03;;;;;;;;;;5045473;28;20040;-82
2023/12/31 06:41:53;;;;;;;2.45;0.10;;;9.00;99.90;;;;;;5047337;28;20396;-82
2023/12/31 06:44:19;;;;;;;0.60;0.17;;;9.20;99.90;;;;;;5045518;28;20040;-83
2023/12/31 06:46:45;;;;;;;1.83;0.85;;;;;;;;;;5043263;28;20587;-82
2023/12/31 06:49:11;;;;;;;0.05;0.00;;;8.90;99.90;;;;;;5044606;28;20017;-83
2023/12/31 06:51:36;;;;;;;0.35;0.00;;;8.80;99.90;;;;;;5046349;28;20045;-82
2023/12/31 06:54:02;;;;;;;0.65;0.03;;;8.80;99.90;;;;;;5048057;28;20022;-83
2023/12/31 06:56:29;;;;;;;0.55;0.10;;;8.80;99.90;;;;;;5050199;28;20045;-83
2023/12/31 06:58:54;;;;;;;0.38;0.10;;;8.80;99.90;;;;;;5044455;28;20021;-82
2023/12/31 07:01:20;;;;;;;1.40;0.15;;;8.80;99.90;;;;;;5042109;28;20087;-82
2023/12/31 07:03:45;;;;;;;1.60;0.20;;;8.90;99.90;;;;;;5041777;28;20492;-82
2023/12/31 07:06:11;;;;;;;0.77;0.00;;;8.80;99.90;;;;;;5042964;28;20052;-82
2023/12/31 07:08:37;;;;;;;0.75;0.10;;;8.80;99.90;;;;;;5042549;28;20025;-82
2023/12/31 07:11:04;;;;;;;0.30;0.00;;;8.90;99.90;;;;;;5043975;28;20392;-82
2023/12/31 07:13:30;;;;;;;0.50;0.10;;;8.90;99.90;;;;;;5044796;28;20381;-82
2023/12/31 07:15:59;;;;;;;0.35;0.00;;;8.80;99.90;;;;;;5044441;28;20002;-81
2023/12/31 07:18:25;;;;;;;1.55;0.10;;;8.90;99.90;;;;;;5043572;28;20030;-82
2023/12/31 07:20:54;;;;;;;0.57;0.10;;;8.90;99.90;;;;;;5045229;28;20048;-81
2023/12/31 07:23:20;;;;;;;;;;;8.90;99.90;;;;;;5042925;28;20049;-82
2023/12/31 07:25:45;;;;;;;1.00;0.00;;;9.00;99.90;;;;;;5042881;28;19905;-82
2023/12/31 07:28:11;;;;;;;1.25;0.28;;;9.50;99.90;;;;;;5047817;28;20048;-82
2023/12/31 07:30:39;;;;;;;0.93;0.20;;;;;;;;;;5048016;28;20056;-82
2023/12/31 07:33:05;;;;;;;0.95;0.20;;;8.90;99.90;;;;;;5048352;28;20049;-82
2023/12/31 07:35:34;;;;;;;1.80;0.10;;;8.90;99.90;;;;;;5049106;28;20033;-83
2023/12/31 07:38:01;;;;;;;0.80;0.17;;;9.00;99.90;;;;;;5049085;28;20493;-82
2023/12/31 07:40:26;;;;;;;0.40;0.10;;;9.00;99.90;;;;;;5047695;28;20056;-81
2023/12/31 07:42:52;;;;;;;0.70;0.10;;;9.00;99.90;;;;;;5046675;28;20033;-82
2023/12/31 07:45:17;;;;;;;2.67;0.10;;;9.10;99.90;;;;;;5044375;28;20030;-82
2023/12/31 07:47:43;;;;;;;2.92;0.20;;;9.20;99.90;;;;;;5047425;28;20022;-82
2023/12/31 07:50:09;;;;;;;0.40;0.10;;;9.00;99.90;;;;;;5046141;28;20030;-82
2023/12/31 07:52:36;;;;;;;0.50;0.10;;;;;;;;;;5044442;28;20022;-82
2023/12/31 07:55:03;;;;;;;1.80;0.13;;;9.10;99.90;;;;;;5044532;28;20046;-82
2023/12/31 07:57:29;;;;;;;0.50;0.00;;;;;;;;;;5044392;28;20082;-83
2023/12/31 07:59:55;;;;;;;0.75;0.10;;;;;;;;;;5045018;28;20029;-82
2023/12/31 08:02:21;;;;;;;1.65;0.10;;;9.20;99.90;;;;;;5040479;28;20033;-82
2023/12/31 08:04:47;;;;;;;0.28;0.00;;;9.10;99.90;;;;;;5039776;28;20025;-82
2023/12/31 08:07:12;;;;;;;1.55;0.40;;;9.10;99.90;;;;;;5039877;28;20056;-82
2023/12/31 08:09:39;;;;;;;0.95;0.20;;;;;;;;;;5044578;28;20026;-83
2023/12/31 08:12:05;;;;;;;3.35;0.00;;;9.10;99.90;;;;;;5042285;28;20029;-83
2023/12/31 08:14:31;;;;;;;0.85;0.20;;;9.10;99.90;;;;;;5040232;28;20443;-83
2023/12/31 08:16:56;;;;;;;0.43;0.10;;;9.10;99.90;;;;;;5042414;28;20056;-82
2023/12/31 08:19:23;;;;;;;0.22;0.10;;;9.10;99.90;;;;;;5044139;28;20075;-82
2023/12/31 08:21:50;;;;;;;0.50;0.22;;;9.20;99.90;;;;;;5040936;28;20036;-82
2023/12/31 08:24:20;;;;;;;0.73;0.20;;;9.20;99.90;;;;;;5040588;28;20036;-82
2023/12/31 08:26:46;;;;;;;0.50;0.17;;;9.20;99.90;;;;;;5040111;28;20040;-84
2023/12/31 08:29:11;;;;;;;2.30;0.47;;;9.20;99.90;;;;;;5040656;28;20026;-81
2023/12/31 08:31:37;;;;;;;0.63;0.10;;;9.30;99.90;;;;;;5037652;28;20042;-80
2023/12/31 08:34:03;;;;;;;1.63;0.00;;;9.30;99.90;;;;;;5035329;28;20053;-80
2023/12/31 08:36:29;;;;;;;2.20;0.00;;;9.30;99.90;;;;;;5037103;28;20030;-80
2023/12/31 08:38:55;;;;;;;1.30;0.10;;;9.30;99.90;;;;;;5036776;28;20029;-81
2023/12/31 08:41:21;;;;;;;0.57;0.10;;;9.30;99.90;;;;;;5039977;28;20140;-80
2023/12/31 08:43:48;;;;;;;1.75;0.20;;;9.30;99.90;;;;;;5040357;28;20021;-80
2023/12/31 08:46:14;;;;;;;0.93;0.17;;;9.30;99.90;;;;;;5040297;28;20025;-80
2023/12/31 08:48:40;;;;;;;1.20;0.43;;;9.30;99.90;;;;;;5041591;28;20022;-81
2023/12/31 08:51:05;;;;;;;0.60;0.30;;;9.30;99.90;;;;;;5039884;28;20037;-81
2023/12/31 08:53:32;;;;;;;0.40;0.10;;;9.30;99.90;;;;;;5040079;28;20026;-82
2023/12/31 08:55:57;;;;;;;1.80;0.28;;;9.30;99.90;;;;;;5040910;28;20029;-81
2023/12/31 08:58:26;;;;;;;0.55;0.10;;;9.20;99.90;;;;;;5039909;28;20056;-81
2023/12/31 09:00:53;;;;;;;0.40;0.15;;;9.30;99.90;;;;;;5039728;28;20033;-82
2023/12/31 09:03:19;;;;;;;1.33;0.20;;;9.20;99.90;;;;;;5039527;28;20112;-81
2023/12/31 09:05:45;;;;;;;1.15;0.35;;;9.20;99.90;;;;;;5040509;28;20499;-79
2023/12/31 09:08:11;;;;;;;1.35;0.50;;;9.20;99.90;;;;;;5040548;28;20026;-81
2023/12/31 09:10:36;;;;;;;0.40;0.20;;;9.20;99.90;;;;;;5039401;28;20041;-81
2023/12/31 09:13:03;;;;;;;1.42;0.08;;;9.20;99.90;;;;;;5040047;28;20024;-82
2023/12/31 09:15:29;;;;;;;2.95;0.47;;;9.20;99.90;;;;;;5039999;28;20017;-81
2023/12/31 09:17:54;;;;;;;1.58;0.20;;;9.30;99.90;;;;;;5040353;28;20025;-82
2023/12/31 09:20:21;;;;;;;5.30;0.95;;;9.30;99.90;;;;;;5040115;28;20025;-83
2023/12/31 09:22:50;;;;;;;0.85;0.30;;;9.20;99.90;;;;;;5039643;28;20033;-81
2023/12/31 09:25:16;;;;;;;0.10;0.00;;;9.20;99.90;;;;;;5039603;28;20481;-81
2023/12/31 09:27:41;;;;;;;0.65;0.00;;;9.10;99.90;;;;;;5039868;28;20040;-82
2023/12/31 09:30:08;;;;;;;0.65;0.00;;;9.10;99.90;;;;;;5040513;28;20053;-80
2023/12/31 09:32:35;;;;;;;0.17;0.00;;;8.90;99.90;;;;;;5040532;28;20021;-78
2023/12/31 09:35:00;;;;;;;1.10;0.00;;;8.80;99.90;;;;;;5036042;28;20059;-78
2023/12/31 09:37:26;;;;;;;0.52;0.00;;;8.70;99.90;;;;;;5036483;28;20480;-78
2023/12/31 09:39:52;;;;;;;0.38;0.00;;;8.80;99.90;;;;;;5035673;28;20053;-78
2023/12/31 09:42:33;;;;;;;1.63;0.00;;;8.60;99.90;;;;;;5037317;28;20049;-78
2023/12/31 09:45:02;;;;;;;0.90;0.00;;;8.60;99.90;;;;;;5035100;28;20025;-77
2023/12/31 09:47:28;;;;;;;;;;;8.50;99.90;;;;;;5035724;28;20025;-77
2023/12/31 09:49:55;;;;;;;0.45;0.00;;;8.50;99.90;;;;;;5034916;28;19988;-77
2023/12/31 09:52:22;;;;;;;0.00;0.00;;;8.50;99.90;;;;;;5035331;28;20021;-77
2023/12/31 09:54:48;;;;;;;0.00;0.00;;;8.50;99.90;;;;;;5036432;28;20030;-77
2023/12/31 09:57:16;;;;;;;1.77;0.00;;;8.50;99.90;;;;;;5036242;28;20120;-78
2023/12/31 09:59:46;;;;;;;0.83;0.00;;;8.40;99.90;;;;;;5035100;28;20029;-78
2023/12/31 10:02:20;;;;;;;0.57;0.00;;;8.30;99.90;;;;;;5034979;28;20025;-78
2023/12/31 10:04:47;;;;;;;1.75;0.00;;;8.30;99.90;;;;;;5034948;28;20025;-77
2023/12/31 10:07:13;;;;;;;0.50;0.00;;;8.30;99.90;;;;;;5034924;28;20017;-78
2023/12/31 10:09:40;;;;;;;0.20;0.00;;;8.30;99.90;;;;;;5036208;28;20029;-78
2023/12/31 10:12:06;;;;;;;0.20;0.00;;;8.30;99.90;;;;;;5034596;28;20033;-77
2023/12/31 10:14:32;;;;;;;0.00;0.00;;;8.40;99.90;;;;;;5034493;28;20025;-77
2023/12/31 10:16:57;;;;;;;0.60;0.32;;;8.40;99.90;;;;;;5035487;28;20116;-78
2023/12/31 10:19:23;;;;;;;1.38;0.00;;;8.40;99.90;;;;;;5034827;28;20393;-76
2023/12/31 10:21:49;;;;;;;0.15;0.00;;;8.50;99.90;;;;;;5038386;28;20025;-79
2023/12/31 10:24:25;;;;;;;0.70;0.00;;;8.50;99.90;;;;;;5037161;28;20457;-82
2023/12/31 10:26:50;;;;;;;0.20;0.00;;;8.60;99.90;;;;;;5038573;28;20473;-80
2023/12/31 10:29:16;;;;;;;0.75;0.00;;;8.60;99.90;;;;;;5042678;28;20101;-80
2023/12/31 10:31:42;;;;;;;1.90;0.00;;;8.70;99.90;;;;;;5041117;28;20473;-81
2023/12/31 10:34:15;;;;;;;0.38;0.00;;;9.30;99.90;;;;;;5040607;28;20028;-81
2023/12/31 10:36:43;;;;;;;0.35;0.00;;;8.70;99.90;;;;;;5040677;28;20025;-80
2023/12/31 10:39:08;;;;;;;0.30;0.00;;;8.80;99.90;;;;;;5041295;28;20029;-80
2023/12/31 10:41:37;;;;;;;1.38;0.00;;;9.00;99.90;;;;;;5042033;28;20032;-80
2023/12/31 10:44:11;;;;;;;1.30;0.00;;;8.90;99.90;;;;;;5040754;28;20041;-79
2023/12/31 10:46:41;;;;;;;0.00;0.00;;;8.90;99.90;;;;;;5038364;28;20022;-79
2023/12/31 10:49:11;;;;;;;0.10;0.00;;;8.90;99.90;;;;;;5038137;28;20029;-79
2023/12/31 10:51:44;;;;;;;0.65;0.00;;;8.90;99.90;;;;;;5038300;28;20037;-79
2023/12/31 10:54:20;;;;;;;1.33;0.00;;;9.00;99.90;;;;;;5037293;28;20021;-79
2023/12/31 10:56:48;;;;;;;2.13;0.00;;;9.00;99.90;;;;;;5037853;28;20021;-79
2023/12/31 10:59:16;;;;;;;1.90;0.00;;;9.00;99.90;;;;;;5037056;28;20030;-78
2023/12/31 11:01:43;;;;;;;1.15;0.00;;;9.00;99.90;;;;;;5037304;28;20017;-79
2023/12/31 11:04:11;;;;;;;0.22;0.00;;;9.00;99.90;;;;;;5036319;28;20391;-76
2023/12/31 11:06:42;;;;;;;0.08;0.00;;;9.00;99.90;;;;;;5038218;28;20021;-76
2023/12/31 11:09:09;;;;;;;1.98;0.00;;;9.00;99.90;;;;;;5036063;28;20018;-77
2023/12/31 11:11:36;;;;;;;0.90;0.05;;;9.10;99.90;;;;;;5035790;28;20064;-78
2023/12/31 11:14:04;;;;;;;0.65;0.00;;;9.10;99.90;;;;;;5038029;28;20028;-79
2023/12/31 11:17:01;;;;;;;0.75;0.00;;;9.10;99.90;;;;;;5036854;28;20029;-78
2023/12/31 11:19:56;;;;;;;1.00;0.05;;;9.10;99.90;;;;;;5043035;28;20021;-80
2023/12/31 11:22:53;;;;;;;0.30;0.10;;;9.00;99.90;;;;;;5009541;28;20037;-79
2023/12/31 11:25:24;;;;;;;0.03;0.00;;;8.80;99.90;;;;;;5036775;28;20029;-79
2023/12/31 11:27:54;;;;;;;0.90;0.00;;;8.70;99.90;;;;;;5037999;28;20411;-78
2023/12/31 11:30:43;;;;;;;0.22;0.00;;;8.60;99.90;;;;;;5038223;28;20017;-81
2023/12/31 11:33:09;;;;;;;4.18;0.20;;;8.40;99.90;;;;;;5026122;28;20491;-80
2023/12/31 11:35:42;;;;;;;0.55;0.00;;;8.20;99.90;;;;;;5040253;28;20046;-81
2023/12/31 11:38:08;;;;;;;0.00;0.00;;;8.20;99.90;;;;;;5038185;28;20010;-81
2023/12/31 11:40:36;;;;;;;2.60;0.43;;;8.40;99.90;;;;;;5037964;28;20499;-79
2023/12/31 11:43:16;;;;;;;0.20;0.00;;;8.00;99.90;;;;;;5039190;28;20026;-79
2023/12/31 11:45:45;;;;;;;1.63;0.00;;;8.00;99.90;;;;;;5037688;28;20476;-79
2023/12/31 11:48:20;;;;;;;;;;;7.90;99.90;;;;;;5035039;28;20021;-79
2023/12/31 11:50:52;;;;;;;1.88;0.00;;;7.90;99.90;;;;;;5036952;28;19913;-78
2023/12/31 11:53:22;;;;;;;1.83;0.00;;;8.00;99.90;;;;;;5035678;28;20088;-80
2023/12/31 11:55:55;;;;;;;1.17;0.00;;;;;;;;;;5035258;28;20026;-79
2023/12/31 11:58:26;;;;;;;2.13;0.00;;;7.90;99.90;;;;;;5036760;28;20048;-79
2023/12/31 12:00:53;;;;;;;3.53;0.00;;;8.00;99.90;;;;;;5042243;28;20080;-79
2023/12/31 12:03:21;;;;;;;3.95;0.32;;;8.00;99.90;;;;;;5046287;28;20009;-78
2023/12/31 12:05:52;;;;;;;3.63;0.00;;;8.10;99.90;;;;;;5044428;28;20024;-79
2023/12/31 12:08:20;;;;;;;2.72;0.50;;;8.10;99.90;;;;;;5045500;28;20030;-79
2023/12/31 12:10:45;;;;;;;0.30;0.22;;;8.20;99.90;;;;;;5045020;28;20025;-79
2023/12/31 12:13:12;;;;;;;0.22;0.00;;;8.20;99.90;;;;;;5045624;28;20381;-80
2023/12/31 12:15:38;;;;;;;2.05;0.00;;;8.30;99.90;;;;;;5044588;28;20014;-80
2023/12/31 12:18:23;;;;;;;0.38;0.00;;;8.30;99.90;;;;;;5046617;28;20447;-80
2023/12/31 12:20:48;;;;;;;1.02;0.00;;;8.30;99.90;;;;;;5044094;28;20024;-83
2023/12/31 12:23:21;;;;;;;1.55;0.52;;;8.40;99.90;;;;;;5039658;28;20048;-84
2023/12/31 12:25:50;;;;;;;1.52;0.00;;;8.40;99.90;;;;;;5042484;28;20063;-82
2023/12/31 12:28:21;;;;;;;2.80;0.77;;;8.50;99.90;;;;;;5042948;28;20025;-82
2023/12/31 12:30:48;;;;;;;1.45;0.00;;;8.50;99.90;;;;;;5043820;28;20044;-82
2023/12/31 12:33:14;;;;;;;2.05;0.00;;;8.60;99.90;;;;;;5043021;28;20488;-82
2023/12/31 12:35:42;;;;;;;5.25;0.50;;;8.70;99.90;;;;;;5045269;28;20049;-82
2023/12/31 12:38:08;;;;;;;2.42;0.00;;;;;;;;;;5042599;28;20025;-82
2023/12/31 12:40:34;;;;;;;3.10;0.38;;;8.80;99.90;;;;;;5043166;28;20087;-83
2023/12/31 12:43:03;;;;;;;3.47;0.60;;;8.90;99.90;;;;;;5043949;28;20544;-82
2023/12/31 12:45:29;;;;;;;2.30;0.00;;;8.90;99.90;;;;;;5041968;28;20029;-82
2023/12/31 12:47:59;;;;;;;2.70;0.13;;;9.00;99.90;;;;;;5039548;28;20116;-82
2023/12/31 12:50:26;;;;;;;2.72;0.00;;;9.00;99.90;;;;;;5040071;28;20030;-82
2023/12/31 12:52:53;;;;;;;2.42;0.00;;;9.10;99.90;;;;;;5038424;28;20029;-81
2023/12/31 12:55:19;;;;;;;2.40;0.00;;;9.10;99.90;;;;;;5036629;28;20025;-81
2023/12/31 12:57:45;;;;;;;1.38;0.10;;;9.50;99.90;;;;;;5036542;28;20025;-81
2023/12/31 13:00:12;;;;;;;5.70;0.65;;;10.10;99.90;;;;;;5037127;28;20026;-81